Jump to content

Rendering issue with weather?


Recommended Posts

Seems to happen at lower altitudes. I think it may be something to do with the way the weather engine (AS2012) is trying to draw in low visibilty settings?

TAF: NZWN 010502Z 0106/0206 20010KT 9999 FEW005 BECMG 0106/0108 BKN006 BECMG 0108/0110 BKN004 PROB30 0114/0120 2000 BR BECMG 0119/0121 BKN012 FM020000 20012KT 9999 FEW012 SCT018 TEMPO 0200/0204 BKN012 -Have also attached images to help show the issue. thanks!

2.PNG

1.2.JPG

3.PNG

fsxconfigsetting.txt

Link to comment
Share on other sites

 Share

  • Recently Browsing   0 members

    • No registered users viewing this page.
×
×
  • Create New...